Time,TemperatureF,DewpointF,PressureIn,WindDirection,WindDirectionDegrees,WindSpeedMPH,WindSpeedGustMPH,Humidity,HourlyPrecipIn,Conditions,Clouds,dailyrainin,SoftwareType,DateUTC
2013-08-11 00:03:00,57.0,44.0,-100.00,West,280,4.0,14.0,61,-99.99,,,-99.99,,2013-08-11 07:03:00,
2013-08-11 00:13:00,56.0,44.0,-100.00,WNW,295,5.0,14.0,64,-99.99,,,-99.99,,2013-08-11 07:13:00,
2013-08-11 00:22:00,56.0,44.0,-100.00,WNW,295,5.0,14.0,64,-99.99,,,-99.99,,2013-08-11 07:22:00,
2013-08-11 00:34:00,56.0,45.0,-100.00,West,260,3.0,7.0,66,-99.99,,,-99.99,,2013-08-11 07:34:00,
2013-08-11 00:44:00,56.0,45.0,-100.00,West,260,3.0,7.0,66,-99.99,,,-99.99,,2013-08-11 07:44:00,
2013-08-11 00:53:00,56.0,45.0,-100.00,NW,320,2.0,6.0,67,-99.99,,,-99.99,,2013-08-11 07:53:00,
2013-08-11 01:14:00,55.0,45.0,-100.00,North,355,1.0,4.0,68,-99.99,,,-99.99,,2013-08-11 08:14:00,
2013-08-11 01:34:00,54.0,45.0,-100.00,WNW,295,1.0,1.0,70,-99.99,,,-99.99,,2013-08-11 08:34:00,
2013-08-11 01:45:00,53.0,45.0,-100.00,WNW,290,0.0,1.0,72,-99.99,,,-99.99,,2013-08-11 08:45:00,
2013-08-11 02:03:00,53.0,45.0,-100.00,WNW,295,0.0,1.0,73,-99.99,,,-99.99,,2013-08-11 09:03:00,
2013-08-11 02:12:00,53.0,44.0,-100.00,WNW,295,0.0,1.0,74,-99.99,,,-99.99,,2013-08-11 09:12:00,
2013-08-11 02:23:00,53.0,44.0,-100.00,WNW,295,0.0,1.0,74,-99.99,,,-99.99,,2013-08-11 09:23:00,
2013-08-11 02:34:00,52.0,45.0,-100.00,NNW,335,0.0,1.0,76,-99.99,,,-99.99,,2013-08-11 09:34:00,
2013-08-11 02:43:00,52.0,45.0,-100.00,NNW,335,1.0,1.0,77,-99.99,,,-99.99,,2013-08-11 09:43:00,
2013-08-11 03:02:00,51.0,45.0,-100.00,NNW,330,0.0,1.0,78,-99.99,,,-99.99,,2013-08-11 10:02:00,
2013-08-11 03:13:00,51.0,44.0,-100.00,SW,230,1.0,2.0,78,-99.99,,,-99.99,,2013-08-11 10:13:00,
2013-08-11 03:23:00,51.0,44.0,-100.00,SW,230,1.0,2.0,78,-99.99,,,-99.99,,2013-08-11 10:23:00,
2013-08-11 03:33:00,50.0,44.0,-100.00,WSW,250,1.0,3.0,79,-99.99,,,-99.99,,2013-08-11 10:33:00,
2013-08-11 03:43:00,50.0,44.0,-100.00,NW,305,1.0,2.0,80,-99.99,,,-99.99,,2013-08-11 10:43:00,
2013-08-11 03:54:00,50.0,44.0,-100.00,NW,325,2.0,2.0,81,-99.99,,,-99.99,,2013-08-11 10:54:00,
2013-08-11 04:04:00,50.0,44.0,-100.00,NW,325,2.0,2.0,81,-99.99,,,-99.99,,2013-08-11 11:04:00,
2013-08-11 04:12:00,49.0,44.0,-100.00,NW,310,2.0,3.0,81,-99.99,,,-99.99,,2013-08-11 11:12:00,
2013-08-11 04:22:00,49.0,44.0,-100.00,NW,310,2.0,3.0,81,-99.99,,,-99.99,,2013-08-11 11:22:00,
2013-08-11 04:34:00,49.0,43.0,-100.00,NW,320,1.0,2.0,81,-99.99,,,-99.99,,2013-08-11 11:34:00,
2013-08-11 04:56:00,48.0,43.0,-100.00,NW,315,0.0,1.0,82,-99.99,,,-99.99,,2013-08-11 11:56:00,
2013-08-11 05:12:00,48.0,43.0,-100.00,NW,320,0.0,0.0,83,-99.99,,,-99.99,,2013-08-11 12:12:00,
2013-08-11 05:24:00,48.0,43.0,-100.00,NW,320,0.0,0.0,83,-99.99,,,-99.99,,2013-08-11 12:24:00,
2013-08-11 05:43:00,48.0,43.0,-100.00,NNW,335,0.0,1.0,84,-99.99,,,-99.99,,2013-08-11 12:43:00,
2013-08-11 05:52:00,48.0,43.0,-100.00,NNW,335,0.0,1.0,84,-99.99,,,-99.99,,2013-08-11 12:52:00,
2013-08-11 06:03:00,47.0,43.0,-100.00,NNW,340,0.0,1.0,84,-99.99,,,-99.99,,2013-08-11 13:03:00,
2013-08-11 06:13:00,47.0,43.0,-100.00,NNW,330,0.0,1.0,84,-99.99,,,-99.99,,2013-08-11 13:13:00,
2013-08-11 06:24:00,47.0,43.0,-100.00,NNW,330,0.0,1.0,84,-99.99,,,-99.99,,2013-08-11 13:24:00,
2013-08-11 06:35:00,47.0,42.0,-100.00,NNW,330,0.0,1.0,84,-99.99,,,-99.99,,2013-08-11 13:35:00,
2013-08-11 06:44:00,47.0,43.0,-100.00,NNW,335,1.0,1.0,85,-99.99,,,-99.99,,2013-08-11 13:44:00,
2013-08-11 07:02:00,47.0,42.0,-100.00,NNW,330,0.0,0.0,85,-99.99,,,-99.99,,2013-08-11 14:02:00,
2013-08-11 07:14:00,46.0,42.0,-100.00,NNW,340,1.0,2.0,85,-99.99,,,-99.99,,2013-08-11 14:14:00,
2013-08-11 07:22:00,46.0,42.0,-100.00,NNW,340,1.0,2.0,85,-99.99,,,-99.99,,2013-08-11 14:22:00,
2013-08-11 07:45:00,47.0,43.0,-100.00,NNW,345,0.0,1.0,85,-99.99,,,-99.99,,2013-08-11 14:45:00,
2013-08-11 07:54:00,47.0,43.0,-100.00,NNW,345,0.0,1.0,85,-99.99,,,-99.99,,2013-08-11 14:54:00,
2013-08-11 08:02:00,48.0,44.0,-100.00,NNW,345,0.0,0.0,85,-99.99,,,-99.99,,2013-08-11 15:02:00,
2013-08-11 08:12:00,50.0,46.0,-100.00,NNW,345,0.0,1.0,85,-99.99,,,-99.99,,2013-08-11 15:12:00,
2013-08-11 08:23:00,50.0,46.0,-100.00,NNW,345,0.0,1.0,85,-99.99,,,-99.99,,2013-08-11 15:23:00,
2013-08-11 08:46:00,54.0,45.0,-100.00,ESE,115,2.0,4.0,72,-99.99,,,-99.99,,2013-08-11 15:46:00,
2013-08-11 08:54:00,57.0,42.0,-100.00,NNW,345,1.0,4.0,59,-99.99,,,-99.99,,2013-08-11 15:54:00,
2013-08-11 09:03:00,57.0,42.0,-100.00,NNW,345,1.0,4.0,59,-99.99,,,-99.99,,2013-08-11 16:03:00,
2013-08-11 09:12:00,60.0,41.0,-100.00,NNW,335,3.0,4.0,50,-99.99,,,-99.99,,2013-08-11 16:12:00,
2013-08-11 09:23:00,60.0,41.0,-100.00,NNW,335,3.0,4.0,50,-99.99,,,-99.99,,2013-08-11 16:23:00,
2013-08-11 09:34:00,62.0,40.0,-100.00,North,355,1.0,3.0,44,-99.99,,,-99.99,,2013-08-11 16:34:00,